Time;durP1;ratioP1;P1;durP2;ratioP2;P2;SDS_P1;SDS_P2;PMS_P1;PMS_P2;Temp;Humidity;BMP_temperature;BMP_pressure;BME280_temperature;BME280_humidity;BME280_pressure;Samples;Min_cycle;Max_cycle;Signal;HPM_P1;HPM_P2
2022/07/23 00:02:14;;;;;;;;;22.33;22.33;;;;;23.53;100.00;101489.91;5078780;28;66962;-71
2022/07/23 00:04:39;;;;;;;;;22.00;21.33;;;;;23.53;100.00;101491.72;5078585;28;64517;-72
2022/07/23 00:07:05;;;;;;;;;26.67;23.33;;;;;23.53;100.00;101500.69;5079114;28;53263;-73
2022/07/23 00:09:31;;;;;;;;;29.67;26.33;;;;;23.50;100.00;101490.00;5078998;28;53013;-71
2022/07/23 00:11:56;;;;;;;;;25.33;25.00;;;;;23.55;100.00;101495.25;5079184;28;45968;-72
2022/07/23 00:14:22;;;;;;;;;27.33;23.33;;;;;23.55;100.00;101499.78;5078878;28;45284;-73
2022/07/23 00:16:47;;;;;;;;;25.00;25.00;;;;;23.52;100.00;101492.66;5079216;28;45710;-71
2022/07/23 00:19:12;;;;;;;;;27.33;24.67;;;;;23.56;100.00;101504.22;5078350;27;45138;-72
2022/07/23 00:21:38;;;;;;;;;34.33;29.33;;;;;23.55;100.00;101486.28;5060518;28;47950;-73
2022/07/23 00:24:04;;;;;;;;;31.00;28.33;;;;;23.56;100.00;101493.44;5078472;28;61625;-71
2022/07/23 00:26:29;;;;;;;;;37.33;30.67;;;;;23.57;100.00;101496.09;5060835;28;45383;-72
2022/07/23 00:28:54;;;;;;;;;33.25;28.75;;;;;23.58;100.00;101492.44;5078444;27;53765;-72
2022/07/23 00:31:20;;;;;;;;;31.33;31.00;;;;;23.59;100.00;101493.31;5078381;28;57692;-71
2022/07/23 00:33:45;;;;;;;;;33.33;28.33;;;;;23.57;100.00;101496.09;5078681;28;45544;-71
2022/07/23 00:36:10;;;;;;;;;38.00;30.67;;;;;23.57;100.00;101493.38;5079141;28;45405;-74
2022/07/23 00:38:36;;;;;;;;;27.75;26.75;;;;;23.55;100.00;101497.06;5079035;28;45470;-72
2022/07/23 00:41:01;;;;;;;;;32.33;29.33;;;;;23.55;100.00;101483.59;5059865;28;62746;-72
2022/07/23 00:43:26;;;;;;;;;31.50;28.25;;;;;23.56;100.00;101490.75;5078479;27;45360;-72
2022/07/23 00:45:52;;;;;;;;;31.50;28.25;;;;;23.55;100.00;101489.00;5078662;28;45352;-71
2022/07/23 00:48:17;;;;;;;;;29.67;25.67;;;;;23.56;100.00;101490.75;5077963;28;57851;-72
2022/07/23 00:50:43;;;;;;;;;32.50;28.50;;;;;23.55;100.00;101503.34;5043567;28;46816;-71
2022/07/23 00:53:08;;;;;;;;;32.33;30.00;;;;;23.52;100.00;101488.13;5037149;28;45340;-72
2022/07/23 00:55:34;;;;;;;;;30.33;27.33;;;;;23.53;100.00;101487.19;5059991;28;45385;-72
2022/07/23 00:58:01;;;;;;;;;29.00;27.00;;;;;23.53;100.00;101486.31;5060539;28;45279;-72
2022/07/23 01:00:27;;;;;;;;;19.00;18.33;;;;;23.49;100.00;101482.88;5059936;28;47448;-72
2022/07/23 01:02:52;;;;;;;;;29.33;26.67;;;;;23.48;100.00;101483.78;5060298;28;45319;-73
2022/07/23 01:05:21;;;;;;;;;25.33;24.33;;;;;23.45;100.00;101485.69;5078573;28;45211;-72
2022/07/23 01:07:47;;;;;;;;;21.67;21.00;;;;;23.43;100.00;101485.72;5078726;28;45398;-71
2022/07/23 01:10:31;;;;;;;;;28.00;27.33;;;;;23.42;100.00;101486.66;5060071;28;45488;-72
2022/07/23 01:13:06;;;;;;;;;27.67;27.33;;;;;23.39;100.00;101480.50;5078368;28;45449;-74
2022/07/23 01:15:33;;;;;;;;;25.33;24.00;;;;;23.38;100.00;101478.72;5077998;28;45459;-71
2022/07/23 01:17:58;;;;;;;;;30.67;26.67;;;;;23.37;100.00;101474.28;5078204;28;45442;-71
2022/07/23 01:20:24;;;;;;;;;25.67;25.00;;;;;23.32;100.00;101469.03;5077934;28;45421;-71
2022/07/23 01:22:50;;;;;;;;;25.33;25.33;;;;;23.33;100.00;101476.19;5078059;28;45304;-72
2022/07/23 01:25:15;;;;;;;;;24.00;20.67;;;;;23.30;100.00;101468.19;5078167;28;45300;-71
2022/07/23 01:27:41;;;;;;;;;24.00;22.67;;;;;23.33;100.00;101476.19;5078242;28;45301;-71
2022/07/23 01:30:07;;;;;;;;;20.33;19.67;;;;;23.31;100.00;101475.34;5058888;28;62516;-73
2022/07/23 01:32:33;;;;;;;;;20.33;17.67;;;;;23.30;100.00;101478.97;5077747;28;45482;-72
2022/07/23 01:34:58;;;;;;;;;19.67;19.67;;;;;23.28;100.00;101478.16;5078093;28;45260;-73
2022/07/23 01:37:24;;;;;;;;;25.67;23.33;;;;;23.29;100.00;101471.84;5077900;28;45134;-71
2022/07/23 01:39:49;;;;;;;;;24.67;23.00;;;;;23.26;100.00;101480.00;5077230;27;58496;-72
2022/07/23 01:42:14;;;;;;;;;26.00;23.33;;;;;23.27;100.00;101487.16;5077037;28;64994;-71
2022/07/23 01:44:39;;;;;;;;;23.33;21.67;;;;;23.26;100.00;101478.19;5077774;28;45196;-73
2022/07/23 01:47:05;;;;;;;;;24.00;23.00;;;;;23.24;100.00;101468.41;5076483;28;53628;-71
2022/07/23 01:49:30;;;;;;;;;23.00;23.00;;;;;23.23;100.00;101472.03;5075887;28;47485;-74
2022/07/23 01:52:01;;;;;;;;;26.00;23.00;;;;;23.25;100.00;101472.84;5075250;28;49206;-71
2022/07/23 01:54:28;;;;;;;;;23.67;19.67;;;;;23.25;100.00;101470.16;5057332;28;45537;-72
2022/07/23 01:56:53;;;;;;;;;27.33;22.67;;;;;23.25;100.00;101467.47;5075871;28;45490;-71
2022/07/23 01:59:18;;;;;;;;;22.00;20.67;;;;;23.24;100.00;101471.09;5075094;28;68162;-71
2022/07/23 02:01:43;;;;;;;;;25.33;19.00;;;;;23.23;100.00;101469.34;5075364;28;63236;-72
2022/07/23 02:04:09;;;;;;;;;22.67;21.00;;;;;23.24;100.00;101474.66;5075615;28;56188;-73
2022/07/23 02:06:34;;;;;;;;;23.33;23.33;;;;;23.21;100.00;101469.34;5076135;28;45460;-72
2022/07/23 02:08:59;;;;;;;;;23.67;20.00;;;;;23.21;100.00;101469.34;5075425;28;57558;-74
2022/07/23 02:11:25;;;;;;;;;19.67;17.33;;;;;23.19;100.00;101462.28;5075204;28;60453;-72
2022/07/23 02:13:50;;;;;;;;;20.67;20.67;;;;;23.20;100.00;101464.03;5075356;28;57400;-72
2022/07/23 02:16:16;;;;;;;;;19.67;18.33;;;;;23.20;100.00;101470.28;5075187;28;55935;-72
2022/07/23 02:18:41;;;;;;;;;22.33;20.67;;;;;23.19;100.00;101462.28;5074983;28;66841;-72
2022/07/23 02:21:06;;;;;;;;;21.33;21.33;;;;;23.18;100.00;101473.97;5075297;28;56659;-71
2022/07/23 02:23:31;;;;;;;;;21.33;20.67;;;;;23.19;100.00;101479.31;5075303;28;57787;-72
2022/07/23 02:25:57;;;;;;;;;24.00;23.00;;;;;23.19;100.00;101478.44;5075512;28;52525;-72
2022/07/23 02:28:22;;;;;;;;;22.00;19.67;;;;;23.19;100.00;101481.13;5057493;28;50444;-71
2022/07/23 02:30:47;;;;;;;;;26.00;19.67;;;;;23.19;100.00;101484.72;5056564;28;64851;-72
2022/07/23 02:33:13;;;;;;;;;22.00;21.00;;;;;23.20;100.00;101488.28;5075691;28;45492;-72
2022/07/23 02:35:38;;;;;;;;;21.00;19.67;;;;;23.16;100.00;101482.09;5075450;28;52772;-72
2022/07/23 02:38:04;;;;;;;;;23.00;18.67;;;;;23.18;100.00;101492.84;5074688;28;67914;-71
2022/07/23 02:40:29;;;;;;;;;22.33;21.33;;;;;23.17;100.00;101499.13;5075553;28;45347;-71
2022/07/23 02:42:54;;;;;;;;;22.67;20.33;;;;;23.16;100.00;101500.06;5079928;28;45894;-72
2022/07/23 02:45:20;;;;;;;;;21.33;21.33;;;;;23.17;100.00;101500.06;5079606;28;45582;-71
2022/07/23 02:47:45;;;;;;;;;18.33;18.33;;;;;23.16;100.00;101498.25;5037672;28;1175907;-72
2022/07/23 02:50:11;;;;;;;;;22.67;20.33;;;;;23.15;100.00;101498.31;5080007;28;50527;-73
2022/07/23 02:52:37;;;;;;;;;22.67;21.33;;;;;23.16;100.00;101502.75;5080727;28;45316;-72
2022/07/23 02:55:03;;;;;;;;;18.67;18.67;;;;;23.13;100.00;101506.44;5079385;28;45488;-72
2022/07/23 02:57:28;;;;;;;;;25.00;21.67;;;;;23.09;100.00;101499.38;5061978;28;46967;-72
2022/07/23 02:59:53;;;;;;;;;23.00;20.00;;;;;23.10;100.00;101506.53;5079999;28;51318;-72
2022/07/23 03:02:19;;;;;;;;;20.67;18.67;;;;;23.07;100.00;101506.63;5080212;28;45184;-72
2022/07/23 03:04:44;;;;;;;;;17.33;16.67;;;;;23.06;100.00;101514.75;5079970;28;51268;-74
2022/07/23 03:07:09;;;;;;;;;19.33;16.33;;;;;23.04;100.00;101516.63;5080435;28;46070;-73
2022/07/23 03:09:35;;;;;;;;;16.33;16.33;;;;;23.02;100.00;101522.06;5079370;28;65252;-72
2022/07/23 03:12:00;;;;;;;;;13.67;13.67;;;;;22.97;100.00;101511.41;5080435;28;45311;-71
2022/07/23 03:14:27;;;;;;;;;19.33;17.67;;;;;22.97;100.00;101516.81;5079535;28;52072;-71
2022/07/23 03:16:53;;;;;;;;;16.67;14.67;;;;;22.95;100.00;101513.25;5079843;28;45527;-71
2022/07/23 03:19:18;;;;;;;;;17.67;17.67;;;;;22.96;100.00;101514.16;5061728;28;45417;-71
2022/07/23 03:21:44;;;;;;;;;15.67;15.67;;;;;22.94;100.00;101506.09;5079624;28;59984;-72
2022/07/23 03:24:09;;;;;;;;;27.67;17.33;;;;;22.94;100.00;101510.63;5061417;28;56087;-72
2022/07/23 03:26:36;;;;;;;;;16.00;15.33;;;;;22.94;100.00;101516.88;5079824;28;45778;-71
2022/07/23 03:29:03;;;;;;;;;16.67;16.67;;;;;22.94;100.00;101529.47;5079689;28;45240;-71
2022/07/23 03:31:28;;;;;;;;;17.00;16.33;;;;;22.92;100.00;101534.91;5080164;28;45431;-71
2022/07/23 03:33:54;;;;;;;;;17.67;14.33;;;;;22.90;100.00;101539.44;5080030;28;45217;-73
2022/07/23 03:36:19;;;;;;;;;18.33;15.33;;;;;22.89;100.00;101531.41;5079287;28;60271;-72
2022/07/23 03:38:44;;;;;;;;;23.67;18.33;;;;;22.88;100.00;101529.66;5078863;28;63554;-72
2022/07/23 03:41:10;;;;;;;;;16.67;16.00;;;;;22.86;100.00;101528.78;5079141;28;61574;-74
2022/07/23 03:43:35;;;;;;;;;18.67;14.00;;;;;22.85;100.00;101541.38;5079363;28;48590;-72
2022/07/23 03:46:00;;;;;;;;;19.00;19.00;;;;;22.83;100.00;101527.06;5079542;28;45560;-72
2022/07/23 03:48:26;;;;;;;;;17.67;15.33;;;;;22.84;100.00;101531.50;5060684;28;55464;-71
2022/07/23 03:50:51;;;;;;;;;20.33;17.00;;;;;22.80;100.00;101529.84;5079380;28;55851;-71
2022/07/23 03:53:16;;;;;;;;;21.33;18.33;;;;;22.82;100.00;101535.19;5078687;28;45331;-72
2022/07/23 03:55:42;;;;;;;;;18.67;17.67;;;;;22.81;100.00;101528.03;5079027;28;45903;-71
2022/07/23 03:58:07;;;;;;;;;20.33;19.33;;;;;22.80;100.00;101532.53;5078914;28;52544;-71
2022/07/23 04:00:33;;;;;;;;;21.00;19.67;;;;;22.79;100.00;101527.19;5079480;28;45337;-71
2022/07/23 04:02:58;;;;;;;;;21.67;19.33;;;;;22.81;100.00;101536.13;5060996;28;52447;-71
2022/07/23 04:05:23;;;;;;;;;19.33;18.00;;;;;22.80;100.00;101526.25;5060193;28;70551;-73
2022/07/23 04:07:49;;;;;;;;;19.67;18.33;;;;;22.78;100.00;101534.38;5079042;28;45371;-72
2022/07/23 04:10:15;;;;;;;;;20.67;15.67;;;;;22.80;100.00;101546.00;5079361;28;49134;-71
2022/07/23 04:12:40;;;;;;;;;18.00;16.33;;;;;22.79;100.00;101543.34;5061088;28;45327;-74
2022/07/23 04:15:07;;;;;;;;;24.67;15.67;;;;;22.79;100.00;101543.34;5079026;28;46745;-71
2022/07/23 04:17:33;;;;;;;;;20.00;18.67;;;;;22.75;100.00;101545.25;5078873;28;45259;-71
2022/07/23 04:19:58;;;;;;;;;16.33;16.33;;;;;22.74;100.00;101541.69;5078667;28;55294;-71
2022/07/23 04:22:23;;;;;;;;;19.33;17.00;;;;;22.76;100.00;101547.00;5078628;28;48006;-72
2022/07/23 04:24:50;;;;;;;;;16.67;16.67;;;;;22.76;100.00;101549.69;5078297;28;64071;-72
2022/07/23 04:27:15;;;;;;;;;21.00;18.33;;;;;22.76;100.00;101555.09;5078994;28;45158;-72
2022/07/23 04:29:40;;;;;;;;;22.33;16.67;;;;;22.74;100.00;101556.91;5078456;28;45371;-71
2022/07/23 04:32:06;;;;;;;;;22.33;19.33;;;;;22.72;100.00;101550.72;5060369;28;45630;-71
2022/07/23 04:34:31;;;;;;;;;18.00;15.00;;;;;22.70;100.00;101550.75;5078946;28;47363;-74
2022/07/23 04:36:57;;;;;;;;;14.33;13.67;;;;;22.71;100.00;101557.03;5078134;28;45354;-71
2022/07/23 04:39:22;;;;;;;;;19.00;17.33;;;;;22.67;100.00;101560.72;5078742;28;45200;-72
2022/07/23 04:41:48;;;;;;;;;19.33;17.00;;;;;22.65;100.00;101559.88;5060567;28;45461;-71
2022/07/23 04:44:13;;;;;;;;;19.67;15.00;;;;;22.62;100.00;101557.28;5078600;28;46086;-72
2022/07/23 04:46:38;;;;;;;;;22.00;19.33;;;;;22.63;100.00;101561.72;5077695;28;52351;-73
2022/07/23 04:49:04;;;;;;;;;19.00;17.00;;;;;22.63;100.00;101564.41;5078707;27;45465;-72
2022/07/23 04:51:29;;;;;;;;;17.00;15.00;;;;;22.65;100.00;101570.66;5078108;28;54694;-71
2022/07/23 04:53:55;;;;;;;;;20.67;18.33;;;;;22.66;100.00;101564.34;5077910;27;45574;-73
2022/07/23 04:56:20;;;;;;;;;15.00;15.00;;;;;22.67;100.00;101566.09;5078033;28;45373;-72
2022/07/23 04:58:45;;;;;;;;;19.33;18.33;;;;;22.69;100.00;101567.84;5078183;28;54303;-72
2022/07/23 05:01:11;;;;;;;;;20.00;18.67;;;;;22.67;100.00;101568.78;5078506;28;45296;-72
2022/07/23 05:03:36;;;;;;;;;20.00;16.33;;;;;22.70;100.00;101568.72;5077793;28;46731;-72
2022/07/23 05:06:03;;;;;;;;;20.33;17.67;;;;;22.70;100.00;101571.41;5078257;28;45533;-72
2022/07/23 05:08:28;;;;;;;;;19.00;18.00;;;;;22.70;100.00;101569.59;5078811;28;45361;-73
2022/07/23 05:10:53;;;;;;;;;22.67;20.33;;;;;22.68;100.00;101560.66;5078641;28;45531;-72
2022/07/23 05:13:19;;;;;;;;;21.67;18.67;;;;;22.71;100.00;101568.69;5078328;28;46913;-72
2022/07/23 05:15:45;;;;;;;;;23.00;18.00;;;;;22.73;100.00;101574.00;5077936;28;45211;-72
2022/07/23 05:18:11;;;;;;;;;20.00;17.33;;;;;22.74;100.00;101573.06;5078383;28;45890;-72
2022/07/23 05:20:36;;;;;;;;;18.33;18.33;;;;;22.73;100.00;101571.31;5060067;28;45476;-72
2022/07/23 05:23:02;;;;;;;;;22.67;20.00;;;;;22.73;100.00;101569.50;5078145;28;45744;-73
2022/07/23 05:25:27;;;;;;;;;22.33;20.67;;;;;22.70;100.00;101560.66;5077859;28;45424;-71
2022/07/23 05:27:52;;;;;;;;;20.33;19.33;;;;;22.70;100.00;101561.53;5078276;28;45308;-72
2022/07/23 05:30:18;;;;;;;;;21.33;18.33;;;;;22.65;100.00;101550.00;5059845;28;45370;-73
2022/07/23 05:32:43;;;;;;;;;18.67;18.67;;;;;22.65;100.00;101554.50;5059643;28;45661;-71
2022/07/23 05:35:09;;;;;;;;;23.33;19.67;;;;;22.74;100.00;101565.00;5077803;28;45461;-72
2022/07/23 05:37:34;;;;;;;;;23.67;21.00;;;;;22.73;100.00;101561.44;5078118;28;45279;-71
2022/07/23 05:40:06;;;;;;;;;24.33;22.00;;;;;22.76;100.00;101568.56;5059358;28;50966;-72
2022/07/23 05:42:31;;;;;;;;;19.67;18.33;;;;;22.77;100.00;101566.75;5059904;28;45454;-73
2022/07/23 05:44:57;;;;;;;;;11.00;7.00;;;;;22.77;100.00;101573.00;5077723;28;45247;-72
2022/07/23 05:47:22;;;;;;;;;25.67;23.00;;;;;22.73;100.00;101565.94;5077353;28;45597;-72
2022/07/23 05:49:47;;;;;;;;;23.67;21.67;;;;;22.73;100.00;101565.94;5077865;28;45581;-72
2022/07/23 05:52:13;;;;;;;;;26.67;21.33;;;;;22.78;100.00;101564.00;5077322;28;57358;-71
2022/07/23 05:54:38;;;;;;;;;26.33;24.67;;;;;22.80;100.00;101572.94;5077070;28;45450;-72
2022/07/23 05:57:04;;;;;;;;;34.00;24.33;;;;;22.79;100.00;101571.13;5076636;28;52163;-71
2022/07/23 05:59:30;;;;;;;;;36.33;28.00;;;;;22.80;100.00;101577.41;5077697;28;45485;-72
2022/07/23 06:01:55;;;;;;;;;35.33;28.00;;;;;22.75;100.00;101569.47;5077497;28;45880;-73
2022/07/23 06:04:20;;;;;;;;;34.67;31.33;;;;;22.74;100.00;101581.16;5077353;28;45314;-71
2022/07/23 06:06:46;;;;;;;;;41.25;33.50;;;;;22.76;100.00;101576.63;5077458;28;45290;-73
2022/07/23 06:09:13;;;;;;;;;45.75;35.00;;;;;22.77;100.00;101588.28;5077339;28;55345;-72
2022/07/23 06:11:39;;;;;;;;;46.25;34.00;;;;;22.73;100.00;101580.28;5077221;28;46953;-72
2022/07/23 06:14:04;;;;;;;;;42.00;34.50;;;;;22.73;100.00;101579.38;5077464;28;45354;-74
2022/07/23 06:16:29;;;;;;;;;44.75;34.25;;;;;22.72;100.00;101585.72;5076260;28;45476;-72
2022/07/23 06:18:55;;;;;;;;;47.75;36.75;;;;;22.73;100.00;101584.78;5076828;28;52220;-74
2022/07/23 06:21:20;;;;;;;;;48.00;37.00;;;;;22.73;100.00;101584.78;5058944;28;45986;-72
2022/07/23 06:23:45;;;;;;;;;46.75;37.00;;;;;22.72;100.00;101583.00;5077032;28;45343;-72
2022/07/23 06:26:11;;;;;;;;;47.50;37.25;;;;;22.78;100.00;101585.53;5077118;28;52450;-72
2022/07/23 06:28:36;;;;;;;;;49.75;37.75;;;;;22.80;100.00;101586.41;5058964;28;49338;-72
2022/07/23 06:31:01;;;;;;;;;49.25;37.25;;;;;22.86;100.00;101590.72;5077032;28;49453;-72
2022/07/23 06:33:27;;;;;;;;;47.00;35.25;;;;;22.87;100.00;101598.75;5076316;28;55694;-72
2022/07/23 06:35:52;;;;;;;;;41.50;34.00;;;;;22.87;100.00;101593.38;5077171;28;45399;-72
2022/07/23 06:38:18;;;;;;;;;45.00;36.50;;;;;22.92;100.00;101599.53;5076400;28;55550;-73
2022/07/23 06:40:44;;;;;;;;;45.50;35.75;;;;;22.98;100.00;101604.75;5076818;28;45689;-72
2022/07/23 06:43:10;;;;;;;;;49.50;37.25;;;;;23.02;100.00;101599.28;5076941;28;45421;-72
2022/07/23 06:45:35;;;;;;;;;49.00;39.00;;;;;22.99;100.00;101608.31;5076711;28;45493;-74
2022/07/23 06:48:02;;;;;;;;;46.00;36.50;;;;;23.01;100.00;101609.19;5058624;28;45407;-72
2022/07/23 06:50:27;;;;;;;;;47.00;38.00;;;;;23.02;100.00;101607.38;5076753;28;46830;-72
2022/07/23 06:52:53;;;;;;;;;50.75;38.75;;;;;23.04;100.00;101602.81;5076884;28;45215;-72
2022/07/23 06:55:18;;;;;;;;;51.75;39.00;;;;;23.06;100.00;101606.34;5052750;28;45340;-71
2022/07/23 06:57:44;;;;;;;;;52.25;38.50;;;;;23.06;100.00;101612.59;5051837;28;45473;-74
2022/07/23 07:00:10;;;;;;;;;51.00;40.00;;;;;23.07;100.00;101609.00;5041774;28;48710;-71
2022/07/23 07:02:35;;;;;;;;;49.75;37.00;;;;;23.11;100.00;101612.47;5076703;28;45156;-72
2022/07/23 07:05:00;;;;;;;;;48.00;37.00;;;;;23.16;100.00;101614.09;5076472;28;50142;-72
2022/07/23 07:07:26;;;;;;;;;48.75;39.00;;;;;23.19;100.00;101623.94;5076781;28;45590;-72
2022/07/23 07:09:51;;;;;;;;;50.75;39.75;;;;;23.18;100.00;101619.47;5075971;28;63822;-72
2022/07/23 07:12:16;;;;;;;;;50.50;39.75;;;;;23.18;100.00;101622.16;5076804;28;46136;-73
2022/07/23 07:14:42;;;;;;;;;52.50;37.75;;;;;23.18;100.00;101628.44;5076655;28;45283;-72
2022/07/23 07:17:08;;;;;;;;;49.25;39.75;;;;;23.18;100.00;101633.84;5075969;28;56722;-72
2022/07/23 07:19:33;;;;;;;;;53.00;39.75;;;;;23.19;100.00;101629.31;5076169;28;46786;-72
2022/07/23 07:21:58;;;;;;;;;50.50;39.00;;;;;23.23;100.00;101641.78;5058527;28;45350;-72
2022/07/23 07:24:24;;;;;;;;;51.50;37.25;;;;;23.24;100.00;101638.16;5076579;28;45883;-72
2022/07/23 07:26:49;;;;;;;;;56.75;41.50;;;;;23.27;100.00;101640.75;5058345;28;54524;-72
2022/07/23 07:29:15;;;;;;;;;47.75;39.50;;;;;23.31;100.00;101646.94;5079704;28;46526;-71
2022/07/23 07:31:40;;;;;;;;;53.25;41.50;;;;;23.27;100.00;101646.13;5061582;28;45455;-72
2022/07/23 07:34:05;;;;;;;;;50.00;36.75;;;;;23.22;100.00;101646.28;5079316;28;60647;-72
2022/07/23 07:36:31;;;;;;;;;52.00;40.25;;;;;23.24;100.00;101649.81;5079578;28;45568;-72
2022/07/23 07:38:56;;;;;;;;;49.00;39.50;;;;;23.26;100.00;101661.44;5079808;28;45702;-73
2022/07/23 07:41:26;;;;;;;;;51.75;39.75;;;;;23.27;100.00;101649.72;5079099;28;62052;-72
2022/07/23 07:43:51;;;;;;;;;53.75;41.50;;;;;23.29;100.00;101660.47;5079784;28;45186;-72
2022/07/23 07:46:17;;;;;;;;;53.75;39.50;;;;;23.29;100.00;101655.09;5080275;27;45641;-73
2022/07/23 07:48:42;;;;;;;;;54.75;39.50;;;;;23.29;100.00;101651.50;5079515;28;46461;-71
2022/07/23 07:51:07;;;;;;;;;51.25;39.75;;;;;23.31;100.00;101653.22;5061315;28;53191;-71
2022/07/23 07:53:33;;;;;;;;;50.75;40.00;;;;;23.33;100.00;101659.47;5078658;28;56938;-72
2022/07/23 07:55:58;;;;;;;;;50.75;38.25;;;;;23.35;100.00;101662.97;5060817;28;52608;-72
2022/07/23 07:58:24;;;;;;;;;47.75;36.75;;;;;23.42;100.00;101669.06;5079413;28;46862;-72
2022/07/23 08:00:49;;;;;;;;;46.50;37.50;;;;;23.50;100.00;101664.34;5079292;28;45292;-72
2022/07/23 08:03:14;;;;;;;;;51.25;39.25;;;;;23.55;100.00;101664.22;5078717;28;56773;-71
2022/07/23 08:05:40;;;;;;;;;49.50;39.25;;;;;23.58;100.00;101662.31;5079434;28;45226;-72
2022/07/23 08:08:05;;;;;;;;;50.25;38.50;;;;;23.61;100.00;101664.03;5078703;28;65261;-72
2022/07/23 08:10:33;;;;;;;;;50.25;37.50;;;;;23.64;100.00;101672.94;5079384;28;45293;-73
2022/07/23 08:13:00;;;;;;;;;49.50;40.00;;;;;23.57;100.00;101663.25;5079326;28;45271;-72
2022/07/23 08:15:28;;;;;;;;;45.00;36.50;;;;;23.58;100.00;101658.72;5061193;28;45567;-74
2022/07/23 08:17:53;;;;;;;;;54.00;39.50;;;;;23.62;100.00;101665.81;5079134;28;47007;-74
2022/07/23 08:20:20;;;;;;;;;52.50;39.25;;;;;23.68;100.00;101665.66;5079086;28;45340;-74
2022/07/23 08:22:47;;;;;;;;;48.00;35.25;;;;;23.75;100.00;101672.59;5079287;28;45447;-70
2022/07/23 08:25:13;;;;;;;;;50.75;39.75;;;;;23.84;100.00;101676.84;5079225;28;45287;-74
2022/07/23 08:27:39;;;;;;;;;49.50;37.25;;;;;23.92;100.00;101689.19;5079056;28;45588;-72
2022/07/23 08:30:05;;;;;;;;;43.25;36.00;;;;;23.94;100.00;101683.72;5078019;28;65611;-72
2022/07/23 08:32:30;;;;;;;;;45.50;34.50;;;;;23.96;100.00;101682.75;5078810;28;45276;-72
2022/07/23 08:34:55;;;;;;;;;46.00;36.25;;;;;24.02;100.00;101696.06;5079057;28;45274;-73
2022/07/23 08:37:21;;;;;;;;;44.50;34.75;;;;;24.01;100.00;101694.28;5060010;28;64950;-72
2022/07/23 08:39:46;;;;;;;;;42.67;34.33;;;;;23.99;100.00;101693.44;5077406;28;58253;-71
2022/07/23 08:42:13;;;;;;;;;46.25;36.25;;;;;24.00;100.00;101703.31;5078256;28;60387;-73
2022/07/23 08:44:44;;;;;;;;;46.25;35.50;;;;;24.02;100.00;101695.16;5060642;28;45564;-71
2022/07/23 08:47:11;;;;;;;;;46.00;35.50;;;;;24.05;100.00;101705.88;5171742;22;46613;-71
2022/07/23 08:49:38;;;;;;;;;39.25;31.50;;;;;24.10;100.00;101711.13;5058039;28;45415;-74
2022/07/23 08:52:04;;;;;;;;;36.75;33.00;;;;;24.18;100.00;101703.66;5058394;28;45324;-71
2022/07/23 08:54:30;;;;;;;;;45.33;34.00;;;;;24.24;100.00;101703.47;5039974;28;45346;-71
2022/07/23 08:56:55;;;;;;;;;41.00;33.75;;;;;24.30;100.00;101708.69;5039515;28;45547;-72
2022/07/23 08:59:21;;;;;;;;;41.00;35.00;;;;;24.30;100.00;101705.97;5057708;28;64181;-72
2022/07/23 09:01:46;;;;;;;;;44.00;35.00;;;;;24.31;100.00;101699.63;5058132;28;45722;-72
2022/07/23 09:04:11;;;;;;;;;49.00;37.25;;;;;24.37;100.00;101712.09;5057655;28;54606;-73
2022/07/23 09:06:39;;;;;;;;;48.25;38.00;;;;;24.35;100.00;101703.13;5057262;28;60345;-74
2022/07/23 09:09:20;;;;;;;;;42.75;35.00;;;;;24.35;100.00;101700.44;5040030;28;45313;-72
2022/07/23 09:11:47;;;;;;;;;40.25;33.50;;;;;24.40;100.00;101698.50;5058236;28;45209;-72
2022/07/23 09:14:12;;;;;;;;;39.33;34.33;;;;;24.46;100.00;101701.00;5040170;28;45359;-74
2022/07/23 09:16:38;;;;;;;;;45.25;35.00;;;;;24.55;100.00;101704.28;5057590;28;46775;-70
2022/07/23 09:19:05;;;;;;;;;43.75;35.25;;;;;24.61;100.00;101697.78;5057527;28;54586;-74
2022/07/23 09:21:35;;;;;;;;;40.00;33.50;;;;;24.69;100.00;101697.53;5057874;28;45218;-72
2022/07/23 09:24:01;;;;;;;;;32.00;30.33;;;;;24.77;100.00;101699.03;5058115;28;45324;-72
2022/07/23 09:26:31;;;;;;;;;45.00;32.50;;;;;24.85;100.00;101698.75;5057810;28;45522;-73
2022/07/23 09:29:04;;;;;;;;;45.75;36.25;;;;;24.93;100.00;101696.69;5057753;28;45353;-72
2022/07/23 09:32:05;;;;;;;;;38.25;33.50;;;;;25.04;100.00;101705.28;5057881;28;45545;-72
2022/07/23 09:34:35;;;;;;;;;45.50;36.25;;;;;25.10;100.00;101685.31;5005368;28;45293;-72
2022/07/23 09:37:14;;;;;;;;;41.50;33.75;;;;;25.19;100.00;101686.78;5037121;28;47874;-72
2022/07/23 09:39:40;;;;;;;;;39.25;33.50;;;;;25.27;100.00;101690.09;5057414;28;45295;-72
2022/07/23 09:42:24;;;;;;;;;42.75;33.75;;;;;25.38;100.00;101687.88;5057646;28;45470;-74
2022/07/23 09:44:51;;;;;;;;;37.00;31.75;;;;;25.46;100.00;101693.91;5057546;28;45406;-73
2022/07/23 09:47:17;;;;;;;;;43.50;34.50;;;;;25.51;100.00;101700.00;5056750;28;45456;-72
2022/07/23 09:49:59;;;;;;;;;37.67;32.33;;;;;25.57;100.00;101697.09;5057202;28;45403;-71
2022/07/23 09:52:32;;;;;;;;;39.00;32.25;;;;;25.61;100.00;101693.28;5057571;28;45409;-72
2022/07/23 09:55:00;;;;;;;;;36.50;33.00;;;;;25.60;100.00;101694.25;5056496;28;45532;-73
2022/07/23 09:57:26;;;;;;;;;36.33;31.33;;;;;25.62;100.00;101688.78;5056906;28;45340;-72
2022/07/23 09:59:51;;;;;;;;;33.33;32.00;;;;;25.68;100.00;101687.69;5057237;28;45352;-73
2022/07/23 10:02:17;;;;;;;;;38.33;32.00;;;;;25.71;100.00;101691.13;5057426;28;45437;-72
2022/07/23 10:04:43;;;;;;;;;35.00;31.00;;;;;25.76;100.00;101686.47;5039023;28;49118;-72
2022/07/23 10:07:10;;;;;;;;;42.00;33.25;;;;;25.78;100.00;101687.28;5039224;28;46059;-72
2022/07/23 10:09:39;;;;;;;;;33.00;30.33;;;;;25.84;100.00;101680.75;5038863;28;45525;-74
2022/07/23 10:12:39;;;;;;;;;32.67;30.00;;;;;25.92;100.00;101686.75;5057528;28;45261;-72
2022/07/23 10:15:08;;;;;;;;;36.33;28.33;;;;;26.00;100.00;101692.75;5057494;28;45345;-72
2022/07/23 10:17:34;;;;;;;;;34.00;30.00;;;;;26.04;100.00;101686.25;5022323;28;46675;-71
2022/07/23 10:20:00;;;;;;;;;32.33;29.67;;;;;26.08;100.00;101693.31;5056952;28;45241;-72
2022/07/23 10:22:37;;;;;;;;;36.00;32.67;;;;;26.05;100.00;101688.03;5056901;28;45259;-72
2022/07/23 10:25:30;;;;;;;;;39.33;33.00;;;;;26.03;100.00;101689.91;5057254;28;45189;-71
2022/07/23 10:27:58;;;;;;;;;31.33;29.67;;;;;25.98;100.00;101689.19;5056881;28;45728;-72
2022/07/23 10:30:42;;;;;;;;;38.33;31.67;;;;;25.92;100.00;101685.88;5057012;28;45558;-73
2022/07/23 10:33:26;;;;;;;;;31.67;30.67;;;;;25.84;100.00;101692.47;5039180;28;45370;-72
2022/07/23 10:36:30;;;;;;;;;31.00;30.00;;;;;25.87;100.00;101694.16;5055743;28;45606;-74
2022/07/23 10:39:05;;;;;;;;;24.00;24.00;;;;;25.95;100.00;101700.16;5056421;28;46625;-73
2022/07/23 10:41:39;;;;;;;;;29.00;28.00;;;;;25.99;100.00;101699.06;5056634;28;46034;-75
2022/07/23 10:44:19;;;;;;;;;38.67;32.00;;;;;26.08;100.00;101711.38;5057011;28;45403;-73
2022/07/23 10:49:30;;;;;;;;;34.00;30.00;;;;;26.16;100.00;101711.97;5056523;28;45591;-71
2022/07/23 10:52:14;;;;;;;;;33.33;30.33;;;;;26.20;100.00;101724.41;5056502;28;45343;-72
2022/07/23 10:55:14;;;;;;;;;28.33;27.67;;;;;26.23;100.00;101716.19;5056089;28;45358;-72
2022/07/23 10:57:50;;;;;;;;;32.67;23.67;;;;;26.25;100.00;101724.22;5005638;28;45506;-72
2022/07/23 11:00:29;;;;;;;;;34.67;30.67;;;;;26.25;100.00;101732.34;5022693;28;45974;-72
2022/07/23 11:02:58;;;;;;;;;34.33;30.67;;;;;26.30;100.00;101733.06;5054473;28;45273;-72
2022/07/23 11:05:42;;;;;;;;;34.33;29.33;;;;;26.33;100.00;101725.69;5060178;28;45264;-71